METAR Data
IDs: Format: Raw Decoded Include TAF

Data at: 2033 UTC 18 Apr 2021

KX60 181955Z AUTO 18003KT 10SM OVC030 25/19 A2987 RMK AO2 LTG DSNT W T02540192
KX60 181935Z AUTO 19005KT 10SM BKN032 BKN040 26/19 A2987 RMK AO2 LTG DSNT W T02570193
KX60 181915Z AUTO 21004KT 10SM SCT034 SCT040 25/19 A2988 RMK AO2 T02550188
KX60 181855Z AUTO 18005KT 7SM HZ SCT034 SCT047 25/19 A2988 RMK AO2 LTG DSNT W T02520194
KX60 181835Z AUTO 34003KT 10SM CLR 24/20 A2989 RMK AO2 T02440200
KX60 181815Z AUTO 00000KT 10SM SCT041 BKN055 BKN070 23/20 A2990 RMK AO2 T02330196
KX60 181755Z AUTO 00000KT 7SM SCT043 BKN065 OVC075 23/20 A2991 RMK AO2 T02260195 10229 20186
KX60 181735Z AUTO 15003KT 10SM SCT008 SCT065 SCT075 23/20 A2991 RMK AO2 T02260200
KX60 181715Z AUTO 15003KT 10SM SCT008 SCT060 22/20 A2991 RMK AO2 T02170195
KX60 181655Z AUTO 00000KT 10SM SCT022 SCT042 SCT060 20/20 A2992 RMK AO2 T02040195
KX60 181635Z AUTO 16007KT 7SM SCT014 SCT042 BKN050 20/19 A2993 RMK AO2 T01960189
KX60 181615Z AUTO 16007KT 10SM SCT023 SCT047 BKN120 19/19 A2994 RMK AO2 T01950189
KX60 181555Z AUTO 15004KT 5SM BR SCT100 SCT120 19/19 A2994 RMK AO2 T01910186
KX60 181535Z AUTO 14006KT 3 1/2SM BR SCT003 BKN055 OVC100 19/18 A2995 RMK AO2 LTG DSNT E T01870183
KX60 181515Z AUTO 14003KT 1/2SM FG BKN003 BKN032 OVC050 19/18 A2998 RMK AO2 T01880183
KX60 181455Z AUTO 00000KT 7SM VCTSBR SCT003 SCT025 OVC050 19/18 A2998 RMK AO2 LTG DSNT E AND W T01900184
KX60 181435Z AUTO 00000KT 3/4SM BR BKN004 OVC025 19/18 A2999 RMK AO2 LTG DSNT E T01900185
KX60 181415Z AUTO 36003KT 7SM BR SCT004 BKN032 OVC038 19/18 A2999 RMK AO2 LTG DSNT E T01900184
KX60 181355Z AUTO 03004KT 7SM SCT004 SCT037 OVC065 19/19 A2999 RMK AO2 LTG DSNT E AND S T01890185
KX60 181335Z AUTO 00000KT 4SM TSBR BKN006 BKN029 OVC050 19/19 A2998 RMK AO2 LTG DSNT NE E AND SW T01890185
KX60 181315Z AUTO 34007G28KT 330V040 1/4SM -TSRA FG BKN004 OVC008 19/18 A2998 RMK AO2 VIS M1/4V3 LTG DSNT ALQDS T01880184
KX60 181255Z AUTO 09003KT 10SM VCTS OVC041 19/19 A2991 RMK AO2 LTG DSNT W AND NW T01920189
KX60 181235Z AUTO 00000KT 10SM OVC041 19/19 A2992 RMK AO2 LTG DSNT NW T01910188
KX60 181215Z AUTO 17003KT 3SM BR SCT002 BKN043 OVC100 19/19 A2992 RMK AO2 T01890186
KX60 181155Z AUTO 00000KT 7SM BKN002 BKN041 OVC047 19/19 A2992 RMK AO2 T01890187 10193 20181
KX60 181135Z AUTO 00000KT 10SM SCT002 OVC049 19/19 A2992 RMK AO2 T01890186
KX60 181115Z AUTO 12003KT 10SM SCT002 SCT035 OVC049 19/19 A2993 RMK AO2 LTG DSNT E T01890186
KX60 181055Z AUTO 35010KT 10SM SCT002 BKN047 OVC060 19/19 A2994 RMK AO2 LTG DSNT N T01890187
KX60 181035Z AUTO 00000KT 7SM SCT047 BKN065 BKN080 19/18 A2991 RMK AO2 LTG DSNT W T01860184
KX60 181015Z AUTO 15003KT 3 1/2SM BR SCT050 BKN065 SCT090 18/18 A2990 RMK AO2 T01850182
KX60 180955Z AUTO 00000KT 10SM SCT050 OVC065 19/19 A2990 RMK AO2 T01880186
KX60 180935Z AUTO 19003KT 7SM BR BKN060 OVC065 19/18 A2989 RMK AO2 T01860183
KX60 180915Z AUTO 17003KT 2 1/2SM BR OVC060 18/18 A2989 RMK AO2 T01830180
KX60 180855Z AUTO 00000KT 2 1/2SM BR SCT060 18/18 A2990 RMK AO2 VIS 1 1/2V5 T01820179
KX60 180835Z AUTO 00000KT 1 1/2SM BR VV007 18/18 A2989 RMK AO2 T01820179
KX60 180815Z AUTO 17003KT 10SM CLR 19/18 A2989 RMK AO2 T01850182
KX60 180755Z AUTO 16004KT 7SM CLR 19/18 A2989 RMK AO2 T01860183
KX60 180735Z AUTO 00000KT 10SM CLR 19/18 A2989 RMK AO2 T01870183
KX60 180715Z AUTO 12004KT 10SM CLR 19/18 A2988 RMK AO2 T01900185
KX60 180655Z AUTO 36003KT 10SM SCT065 SCT085 SCT110 19/19 A2992 RMK AO2 T01920187
KX60 180635Z AUTO 31005KT 7SM SCT045 OVC055 19/19 A2994 RMK AO2 T01920188
KX60 180615Z AUTO 30003KT 10SM SCT050 OVC055 19/19 A2992 RMK AO2 T01920188
KX60 180555Z AUTO 30004KT 10SM SCT050 BKN065 OVC100 19/19 A2992 RMK AO2 T01920188 10230 20190
KX60 180535Z AUTO 17004KT 10SM SCT055 BKN065 OVC100 19/19 A2990 RMK AO2 T01910186
KX60 180515Z AUTO 16003KT 10SM OVC055 19/19 A2991 RMK AO2 T01920187
KX60 180455Z AUTO 00000KT 10SM OVC055 19/19 A2992 RMK AO2 T01940189
KX60 180435Z AUTO 17004KT 10SM BKN055 OVC065 19/19 A2992 RMK AO2 T01920187
KX60 180415Z AUTO 00000KT 5SM RA BR OVC050 19/19 A2993 RMK AO2 T01930188
KX60 180355Z AUTO 16003KT 10SM OVC048 19/19 A2992 RMK AO2 T01930188
KX60 180335Z AUTO 00000KT 10SM OVC046 19/19 A2992 RMK AO2 T01930188
KX60 180315Z AUTO 09003KT 10SM OVC044 19/19 A2992 RMK AO2 T01940187
KX60 180255Z AUTO 07003KT 10SM OVC042 20/19 A2993 RMK AO2
KX60 180235Z AUTO 36005KT 3 1/2SM BR SCT009 BKN044 OVC050 19/19 A2992 RMK AO2 LTG DSNT E AND SE T01950188
KX60 180215Z AUTO 34005KT 1SM VCTSBR BKN010 BKN021 OVC028 20/19 A2992 RMK AO2 LTG DSNT E SE AND W T01960188
KX60 180155Z AUTO 35009G17KT 3SM +RA BR SCT008 BKN020 OVC027 20/19 A2990 RMK AO2 LTG DSNT E AND SE T02030192
KX60 180135Z AUTO 01008G18KT 5SM BR SCT006 BKN014 OVC028 22/21 A2989 RMK AO2 LTG DSNT E T02180206
KX60 180115Z AUTO 31006KT 10SM OVC006 23/22 A2987 RMK AO2 LTG DSNT E AND NW T02300224
KX60 180055Z AUTO 29007KT 7SM VCTS OVC006 23/22 A2986 RMK AO2 LTG DSNT NW THRU E T02300224
KX60 180035Z AUTO 28007KT 3 1/2SM VCTSRA BR SCT006 OVC015 23/22 A2985 RMK AO2 LTG DSNT NW THRU E T02290222
KX60 180015Z AUTO 27010KT 2 1/2SM +TSRA BR SCT008 BKN013 OVC023 23/22 A2985 RMK AO2 VIS 2V3 1/2 LTG DSNT ALQDS T02290222
KX60 172355Z AUTO 28008KT 1 3/4SM +RA BR BKN008 OVC012 23/22 A2985 RMK AO2 VIS 1V5 LTG DSNT NW THRU E T02290222 10269 20227 402700173
KX60 172335Z AUTO 26007KT 3 1/2SM -RA BR BKN010 BKN018 OVC025 23/22 A2984 RMK AO2 LTG DSNT E AND NW T02290220
KX60 172315Z AUTO 23010G14KT 3 1/2SM BR OVC012 24/22 A2984 RMK AO2 LTG DSNT N AND E T02400223
KX60 172255Z AUTO 24009KT 10SM VCTS BKN014 BKN022 OVC044 24/22 A2984 RMK AO2 LTG DSNT E T02420222
KX60 172235Z AUTO 24010KT 10SM BKN016 BKN022 OVC042 25/22 A2983 RMK AO2 T02460223
KX60 172215Z AUTO 24008KT 10SM BKN016 BKN027 OVC045 24/22 A2984 RMK AO2 T02450225
KX60 172155Z AUTO 28006KT 10SM BKN017 BKN022 OVC045 25/22 A2982 RMK AO2 T02540221
KX60 172135Z AUTO 25009KT 10SM BKN019 OVC029 25/22 A2982 RMK AO2 T02540220
KX60 172115Z AUTO 27008KT 10SM BKN019 OVC024 26/22 A2982 RMK AO2 T02560220
KX60 172055Z AUTO 20005KT 10SM BKN021 BKN034 OVC085 26/21 A2981 RMK AO2 T02620210
KX60 172035Z AUTO 21006KT 10SM BKN023 BKN028 OVC075 26/20 A2982 RMK AO2 T02600204
KX60 172015Z AUTO 31003KT 10SM SCT025 BKN034 OVC075 26/20 A2982 RMK AO2 T02550203
KX60 171955Z AUTO 32006KT 10SM BKN025 BKN032 OVC046 25/20 A2984 RMK AO2 T02520202
KX60 171935Z AUTO 34008KT 10SM BKN025 BKN033 OVC045 25/20 A2985 RMK AO2 T02500202
KX60 171915Z AUTO 35007KT 10SM OVC025 25/21 A2985 RMK AO2 T02540205
KX60 171855Z AUTO 34008KT 10SM BKN027 OVC034 26/21 A2986 RMK AO2 T02610206
KX60 171835Z AUTO 26007KT 10SM BKN031 BKN036 OVC045 26/20 A2986 RMK AO2 T02620203
KX60 171815Z AUTO 28008KT 240V300 10SM OVC031 27/20 A2986 RMK AO2 T02670201
KX60 171755Z AUTO 23004KT 10SM SCT028 OVC035 27/20 A2985 RMK AO2 T02670204 10270 20175
KX60 171735Z AUTO 20004KT 10SM SCT024 BKN035 OVC075 26/21 A2986 RMK AO2 T02590208
KX60 171715Z AUTO 21006KT 10SM SCT048 BKN070 26/21 A2986 RMK AO2 T02630208
KX60 171655Z AUTO 20005KT 10SM SCT048 26/21 A2987 RMK AO2 T02600215
KX60 171635Z AUTO 22004KT 10SM SCT044 BKN055 25/21 A2987 RMK AO2 T02480207
KX60 171615Z AUTO 21004KT 10SM SCT008 BKN055 BKN080 24/21 A2988 RMK AO2 T02370206
KX60 171555Z AUTO 00000KT 10SM SCT008 SCT048 BKN050 23/20 A2990 RMK AO2 T02260202
KX60 171535Z AUTO 00000KT 10SM SCT006 BKN048 BKN060 22/20 A2990 RMK AO2 T02240202
KX60 171515Z AUTO 00000KT 10SM OVC006 21/20 A2991 RMK AO2 T02140197
KX60 171455Z AUTO 00000KT 10SM OVC006 21/20 A2991 RMK AO2 T02130199
KX60 171435Z AUTO 07003KT 10SM OVC004 20/19 A2989 RMK AO2 T02010192
KX60 171415Z AUTO 16006KT 10SM OVC002 19/19 A2989 RMK AO2 T01910185
KX60 171355Z AUTO 00000KT 7SM BR OVC002 19/18 A2990 RMK AO2 T01870182
KX60 171335Z AUTO 06003KT 5SM BR OVC002 18/18 A2989 RMK AO2 LTG DSNT SE T01830179
KX60 171315Z AUTO 06003KT 5SM BR OVC002 18/18 A2989 RMK AO2 LTG DSNT SE T01810177
KX60 171255Z AUTO 00000KT 7SM BR OVC002 18/18 A2989 RMK AO2 LTG DSNT SE T01800176
KX60 171235Z AUTO 07003KT 5SM BR OVC002 18/17 A2989 RMK AO2 LTG DSNT SE AND S T01770173
KX60 171215Z AUTO 00000KT 7SM OVC002 18/17 A2989 RMK AO2 LTG DSNT SE T01760173
KX60 171155Z AUTO 05006KT 7SM BR OVC002 18/17 A2987 RMK AO2 LTG DSNT SE THRU SW T01760173 10180 20173
KX60 171135Z AUTO 04006KT 4SM BR OVC002 18/17 A2985 RMK AO2 LTG DSNT SE THRU W T01750172
KX60 171115Z AUTO 11003KT 5SM BR OVC002 17/17 A2984 RMK AO2 LTG DSNT SE THRU W T01730170
KX60 171055Z AUTO 03007KT 7SM OVC002 17/17 A2985 RMK AO2 LTG DSNT SE THRU W T01740171
KX60 171035Z AUTO 03010KT 7SM VCTSBR OVC002 18/17 A2984 RMK AO2 LTG DSNT ALQDS T01760173
KX60 171015Z AUTO 00000KT 1 1/4SM TSBR OVC002 18/18 A2984 RMK AO2 VIS 1/2V5 LTG DSNT SE THRU W T01790176
KX60 170955Z AUTO 34003KT 3SM VCTSBR SCT002 OVC009 18/18 A2984 RMK AO2 LTG DSNT SE THRU W T01800177
KX60 170935Z AUTO 00000KT 1 1/4SM TSBR BKN007 OVC013 18/18 A2983 RMK AO2 LTG DSNT ALQDS T01780175
KX60 170915Z AUTO 07004KT 7SM VCTS BKN003 BKN009 OVC038 18/18 A2982 RMK AO2 LTG DSNT W T01780175
KX60 170855Z AUTO 01003KT 4SM TSBR SCT003 OVC011 18/18 A2983 RMK AO2 LTG DSNT E SW AND W T01790176
KX60 170835Z AUTO 00000KT 3 1/2SM VCTSBR SCT003 OVC009 18/18 A2983 RMK AO2 LTG DSNT E AND W T01780175